EJM218 KNEW-TFFR
Flight info
| Callsign | EJM218 |
|---|---|
| Flight time | 3h 45m |
| Altitude | 37000 |
| Route | FATSO Q105 BLVNS Q102 CIGAR/N0456F390 Q102 FEMID Y290 HAGIT Y308 ACONY Y185 ILURI ILURI2Z |
| Aircraft | CL60/M-SADE3FGHIJ3J4J7P2RWXY/HB1D1 |
Departure
| Time | 2026-04-30 18:03 |
|---|---|
| Airport | Lakefront Airport (KNEW) |
Arrival
| Time | 2026-04-30 21:49 |
|---|---|
| Airport | Maryse Condé International Airport (TFFR) |
| Time | Latitude | Longitude | Altitude | Speed | Heading |
|---|---|---|---|---|---|
| 2026-04-30 17:52 | 30.03454 | -90.02805 | 8 ft | 0 kts | 224° |
| 2026-04-30 18:00 | 30.03449 | -90.02814 | 8 ft | 8 kts | 244° |
| 2026-04-30 18:01 | 30.03483 | -90.02969 | 8 ft | 0 kts | 359° |
| 2026-04-30 18:02 | 30.05381 | -90.02986 | 524 ft | 173 kts | 1° |
| 2026-04-30 18:03 | 30.07686 | -90.00253 | 2717 ft | 234 kts | 103° |
| 2026-04-30 18:04 | 30.03831 | -89.96302 | 5829 ft | 271 kts | 157° |
| 2026-04-30 18:05 | 29.96511 | -89.92532 | 10048 ft | 308 kts | 161° |
| 2026-04-30 18:06 | 29.89231 | -89.85744 | 13167 ft | 374 kts | 135° |
| 2026-04-30 18:07 | 29.81924 | -89.76662 | 16555 ft | 398 kts | 136° |
| 2026-04-30 18:08 | 29.76168 | -89.69546 | 18800 ft | 414 kts | 136° |
| 2026-04-30 18:09 | 29.68141 | -89.59660 | 21491 ft | 431 kts | 137° |
| 2026-04-30 18:10 | 29.59763 | -89.49380 | 23844 ft | 449 kts | 137° |
| 2026-04-30 18:11 | 29.51080 | -89.38761 | 26077 ft | 464 kts | 137° |
| 2026-04-30 18:11 | 29.44400 | -89.30613 | 27613 ft | 473 kts | 138° |
| 2026-04-30 18:12 | 29.37588 | -89.22322 | 28981 ft | 480 kts | 138° |
| 2026-04-30 18:13 | 29.32944 | -89.16680 | 29785 ft | 487 kts | 138° |
| 2026-04-30 18:13 | 29.26764 | -89.09189 | 30713 ft | 495 kts | 138° |
| 2026-04-30 18:14 | 29.21141 | -89.02381 | 31443 ft | 504 kts | 137° |
| 2026-04-30 18:15 | 29.13725 | -88.93422 | 32343 ft | 512 kts | 137° |
| 2026-04-30 18:15 | 29.06188 | -88.84336 | 33103 ft | 519 kts | 136° |
| 2026-04-30 18:16 | 29.01095 | -88.78208 | 33570 ft | 523 kts | 136° |
| 2026-04-30 18:16 | 28.95985 | -88.72067 | 34314 ft | 521 kts | 136° |
| 2026-04-30 18:17 | 28.93473 | -88.69052 | 34793 ft | 518 kts | 137° |
| 2026-04-30 18:17 | 28.90943 | -88.66017 | 35276 ft | 514 kts | 137° |
| 2026-04-30 18:17 | 28.85969 | -88.60060 | 35952 ft | 513 kts | 136° |
| 2026-04-30 18:18 | 28.83467 | -88.57066 | 36243 ft | 513 kts | 136° |
| 2026-04-30 18:18 | 28.81003 | -88.54121 | 36501 ft | 513 kts | 136° |
| 2026-04-30 18:18 | 28.78516 | -88.51150 | 36737 ft | 514 kts | 136° |
| 2026-04-30 18:18 | 28.76034 | -88.48189 | 36949 ft | 515 kts | 136° |
| 2026-04-30 18:19 | 28.73507 | -88.45175 | 36941 ft | 519 kts | 136° |
| 2026-04-30 18:19 | 28.68518 | -88.39232 | 36935 ft | 520 kts | 136° |
| 2026-04-30 18:20 | 28.63501 | -88.33264 | 36929 ft | 517 kts | 136° |
| 2026-04-30 18:20 | 28.58525 | -88.27352 | 36929 ft | 515 kts | 137° |
| 2026-04-30 18:21 | 28.53561 | -88.21466 | 36928 ft | 515 kts | 136° |
| 2026-04-30 18:21 | 28.48566 | -88.15550 | 36928 ft | 515 kts | 136° |
| 2026-04-30 18:22 | 28.43600 | -88.09674 | 36930 ft | 515 kts | 135° |
| 2026-04-30 18:22 | 28.39160 | -88.03189 | 36937 ft | 521 kts | 122° |
| 2026-04-30 18:22 | 28.37424 | -87.99565 | 36943 ft | 523 kts | 115° |
| 2026-04-30 18:23 | 28.34899 | -87.91829 | 36939 ft | 524 kts | 107° |
| 2026-04-30 18:23 | 28.32628 | -87.83904 | 36941 ft | 524 kts | 107° |
| 2026-04-30 18:24 | 28.29240 | -87.72154 | 36943 ft | 523 kts | 107° |
| 2026-04-30 18:25 | 28.26944 | -87.64222 | 36947 ft | 522 kts | 107° |
| 2026-04-30 18:25 | 28.23524 | -87.52458 | 36944 ft | 522 kts | 107° |
| 2026-04-30 18:26 | 28.20090 | -87.40694 | 36944 ft | 523 kts | 107° |
| 2026-04-30 18:27 | 28.16611 | -87.28824 | 36945 ft | 522 kts | 107° |
| 2026-04-30 18:28 | 28.13140 | -87.17029 | 36949 ft | 522 kts | 107° |
| 2026-04-30 18:28 | 28.09657 | -87.05235 | 36950 ft | 522 kts | 107° |
| 2026-04-30 18:29 | 28.05006 | -86.89557 | 36945 ft | 521 kts | 107° |
| 2026-04-30 18:30 | 28.00387 | -86.74008 | 36950 ft | 520 kts | 106° |
| 2026-04-30 18:31 | 27.97001 | -86.62284 | 36948 ft | 520 kts | 106° |
| 2026-04-30 18:32 | 27.93610 | -86.50587 | 36947 ft | 519 kts | 106° |
| 2026-04-30 18:33 | 27.90189 | -86.38833 | 36951 ft | 519 kts | 106° |
| 2026-04-30 18:33 | 27.86775 | -86.27147 | 36947 ft | 516 kts | 106° |
| 2026-04-30 18:34 | 27.83361 | -86.15501 | 36948 ft | 516 kts | 107° |
| 2026-04-30 18:35 | 27.81086 | -86.07763 | 36947 ft | 515 kts | 106° |
| 2026-04-30 18:35 | 27.78825 | -86.00089 | 36948 ft | 515 kts | 106° |
| 2026-04-30 18:36 | 27.75425 | -85.88587 | 36949 ft | 514 kts | 106° |
| 2026-04-30 18:37 | 27.71992 | -85.77013 | 36946 ft | 514 kts | 106° |
| 2026-04-30 18:37 | 27.69725 | -85.69390 | 36941 ft | 514 kts | 106° |
| 2026-04-30 18:38 | 27.67442 | -85.61731 | 36941 ft | 514 kts | 106° |
| 2026-04-30 18:38 | 27.65166 | -85.54116 | 36938 ft | 514 kts | 106° |
| 2026-04-30 18:39 | 27.62876 | -85.46470 | 36938 ft | 513 kts | 106° |
| 2026-04-30 18:39 | 27.60584 | -85.38837 | 36939 ft | 513 kts | 106° |
| 2026-04-30 18:40 | 27.58612 | -85.31137 | 36939 ft | 509 kts | 98° |
| 2026-04-30 18:40 | 27.57272 | -85.23297 | 36947 ft | 509 kts | 98° |
| 2026-04-30 18:41 | 27.55915 | -85.15427 | 36947 ft | 508 kts | 98° |
| 2026-04-30 18:41 | 27.54551 | -85.07561 | 36949 ft | 508 kts | 98° |
| 2026-04-30 18:42 | 27.53194 | -84.99782 | 36950 ft | 507 kts | 98° |
| 2026-04-30 18:42 | 27.51143 | -84.88097 | 36949 ft | 507 kts | 98° |
| 2026-04-30 18:45 | 27.44180 | -84.48955 | 38403 ft | 506 kts | 97° |
| 2026-04-30 18:45 | 27.43480 | -84.45061 | 38613 ft | 506 kts | 97° |
| 2026-04-30 18:45 | 27.42780 | -84.41179 | 38847 ft | 505 kts | 97° |
| 2026-04-30 18:46 | 27.42085 | -84.37326 | 38969 ft | 506 kts | 97° |
| 2026-04-30 18:46 | 27.40652 | -84.29399 | 38951 ft | 509 kts | 97° |
| 2026-04-30 18:47 | 27.39235 | -84.21595 | 38949 ft | 508 kts | 97° |
| 2026-04-30 18:47 | 27.37793 | -84.13676 | 38948 ft | 507 kts | 97° |
| 2026-04-30 18:48 | 27.36368 | -84.05885 | 38948 ft | 505 kts | 97° |
| 2026-04-30 18:48 | 27.34942 | -83.98107 | 38948 ft | 504 kts | 97° |
| 2026-04-30 18:49 | 27.33512 | -83.90337 | 38949 ft | 504 kts | 97° |
| 2026-04-30 18:49 | 27.32090 | -83.82634 | 38949 ft | 504 kts | 97° |
| 2026-04-30 18:50 | 27.30655 | -83.74886 | 38948 ft | 504 kts | 97° |
| 2026-04-30 18:50 | 27.29216 | -83.67144 | 38946 ft | 504 kts | 97° |
| 2026-04-30 18:51 | 27.27764 | -83.59352 | 38948 ft | 503 kts | 97° |
| 2026-04-30 18:51 | 27.26322 | -83.51639 | 38947 ft | 503 kts | 97° |
| 2026-04-30 18:52 | 27.24881 | -83.43963 | 38947 ft | 503 kts | 98° |
| 2026-04-30 18:52 | 27.23436 | -83.36282 | 38946 ft | 503 kts | 98° |
| 2026-04-30 18:53 | 27.21975 | -83.28548 | 38945 ft | 502 kts | 98° |
| 2026-04-30 18:53 | 27.20525 | -83.20891 | 38949 ft | 501 kts | 98° |
| 2026-04-30 18:54 | 27.19058 | -83.13173 | 38951 ft | 501 kts | 98° |
| 2026-04-30 18:54 | 27.17607 | -83.05558 | 38948 ft | 501 kts | 98° |
| 2026-04-30 18:55 | 27.16132 | -82.97842 | 38944 ft | 500 kts | 98° |
| 2026-04-30 18:55 | 27.13407 | -82.86446 | 38938 ft | 504 kts | 110° |
| 2026-04-30 18:56 | 27.10016 | -82.79545 | 38945 ft | 507 kts | 124° |
| 2026-04-30 18:56 | 27.07845 | -82.76421 | 38936 ft | 508 kts | 129° |
| 2026-04-30 18:57 | 27.01119 | -82.67207 | 38950 ft | 508 kts | 128° |
| 2026-04-30 18:57 | 26.96613 | -82.61046 | 38953 ft | 508 kts | 128° |
| 2026-04-30 18:58 | 26.89828 | -82.51791 | 38946 ft | 507 kts | 128° |
| 2026-04-30 18:59 | 26.83091 | -82.42625 | 38938 ft | 506 kts | 128° |
| 2026-04-30 19:00 | 26.74048 | -82.30357 | 38925 ft | 506 kts | 129° |
| 2026-04-30 19:01 | 26.64996 | -82.18115 | 38935 ft | 508 kts | 128° |
| 2026-04-30 19:02 | 26.58188 | -82.08932 | 38938 ft | 507 kts | 129° |
| 2026-04-30 19:03 | 26.49123 | -81.96733 | 38947 ft | 507 kts | 129° |
| 2026-04-30 19:04 | 26.40001 | -81.84493 | 38946 ft | 506 kts | 128° |
| 2026-04-30 19:05 | 26.30869 | -81.72272 | 38950 ft | 506 kts | 128° |
| 2026-04-30 19:06 | 26.21707 | -81.60045 | 38941 ft | 506 kts | 128° |
| 2026-04-30 19:06 | 26.14885 | -81.50952 | 38932 ft | 505 kts | 127° |
| 2026-04-30 19:07 | 26.11086 | -81.44450 | 38932 ft | 500 kts | 112° |
| 2026-04-30 19:07 | 26.09709 | -81.40888 | 38934 ft | 497 kts | 105° |
| 2026-04-30 19:08 | 26.05860 | -81.26186 | 38913 ft | 494 kts | 102° |
| 2026-04-30 19:09 | 26.03009 | -81.15070 | 38917 ft | 493 kts | 102° |
| 2026-04-30 19:09 | 26.01111 | -81.07700 | 38914 ft | 493 kts | 102° |
| 2026-04-30 19:10 | 25.97326 | -80.93056 | 38902 ft | 492 kts | 102° |
| 2026-04-30 19:11 | 25.94458 | -80.82014 | 38910 ft | 492 kts | 102° |
| 2026-04-30 19:12 | 25.92547 | -80.74675 | 38905 ft | 493 kts | 103° |
| 2026-04-30 19:12 | 25.90640 | -80.67367 | 38918 ft | 493 kts | 102° |
| 2026-04-30 19:13 | 25.86783 | -80.52651 | 38936 ft | 492 kts | 103° |
| 2026-04-30 19:14 | 25.84836 | -80.45247 | 38941 ft | 491 kts | 102° |
| 2026-04-30 19:14 | 25.82900 | -80.37900 | 38941 ft | 491 kts | 103° |
| 2026-04-30 19:15 | 25.80971 | -80.30599 | 38939 ft | 491 kts | 103° |
| 2026-04-30 19:15 | 25.78074 | -80.19664 | 38939 ft | 490 kts | 103° |
| 2026-04-30 19:16 | 25.76153 | -80.12430 | 38940 ft | 490 kts | 104° |
| 2026-04-30 19:17 | 25.73252 | -80.01538 | 38938 ft | 490 kts | 103° |
| 2026-04-30 19:17 | 25.70321 | -79.90572 | 38930 ft | 490 kts | 103° |
| 2026-04-30 19:18 | 25.67409 | -79.79713 | 38934 ft | 489 kts | 103° |
| 2026-04-30 19:19 | 25.65464 | -79.72476 | 38936 ft | 488 kts | 103° |
| 2026-04-30 19:19 | 25.62886 | -79.61583 | 38935 ft | 486 kts | 100° |
| 2026-04-30 19:20 | 25.61290 | -79.54256 | 38937 ft | 486 kts | 100° |
| 2026-04-30 19:21 | 25.58884 | -79.43261 | 38944 ft | 486 kts | 99° |
| 2026-04-30 19:22 | 25.55601 | -79.28647 | 38948 ft | 487 kts | 104° |
| 2026-04-30 19:23 | 25.46585 | -79.08000 | 38945 ft | 491 kts | 114° |
| 2026-04-30 19:24 | 25.41996 | -78.97915 | 38949 ft | 489 kts | 114° |
| 2026-04-30 19:25 | 25.34297 | -78.81048 | 38946 ft | 488 kts | 114° |
| 2026-04-30 19:26 | 25.28146 | -78.67620 | 38950 ft | 489 kts | 114° |
| 2026-04-30 19:27 | 25.23530 | -78.57571 | 38946 ft | 489 kts | 114° |
| 2026-04-30 19:28 | 25.18885 | -78.47480 | 38946 ft | 488 kts | 114° |
| 2026-04-30 19:29 | 25.12743 | -78.34174 | 38954 ft | 488 kts | 114° |
| 2026-04-30 19:30 | 25.06566 | -78.20830 | 38943 ft | 489 kts | 114° |
| 2026-04-30 19:31 | 25.00375 | -78.07495 | 38947 ft | 490 kts | 114° |
| 2026-04-30 19:31 | 24.95697 | -77.97446 | 38948 ft | 490 kts | 113° |
| 2026-04-30 19:32 | 24.92566 | -77.90733 | 38951 ft | 489 kts | 114° |
| 2026-04-30 19:32 | 24.89455 | -77.84071 | 38947 ft | 488 kts | 114° |
| 2026-04-30 19:33 | 24.86289 | -77.77298 | 38958 ft | 488 kts | 114° |
| 2026-04-30 19:33 | 24.83139 | -77.70573 | 38952 ft | 489 kts | 114° |
| 2026-04-30 19:34 | 24.79987 | -77.63855 | 38958 ft | 489 kts | 113° |
| 2026-04-30 19:35 | 24.75302 | -77.53883 | 38949 ft | 489 kts | 113° |
| 2026-04-30 19:35 | 24.72240 | -77.47186 | 38952 ft | 489 kts | 113° |
| 2026-04-30 19:36 | 24.69178 | -77.40477 | 38961 ft | 489 kts | 113° |
| 2026-04-30 19:36 | 24.64581 | -77.30425 | 38953 ft | 488 kts | 113° |
| 2026-04-30 19:37 | 24.61518 | -77.23738 | 38958 ft | 488 kts | 114° |
| 2026-04-30 19:37 | 24.58478 | -77.17113 | 38955 ft | 488 kts | 114° |
| 2026-04-30 19:38 | 24.55414 | -77.10446 | 38957 ft | 487 kts | 114° |
| 2026-04-30 19:38 | 24.52359 | -77.03809 | 38954 ft | 487 kts | 114° |
| 2026-04-30 19:39 | 24.49304 | -76.97179 | 38957 ft | 488 kts | 114° |
| 2026-04-30 19:39 | 24.46229 | -76.90517 | 38950 ft | 488 kts | 114° |
| 2026-04-30 19:40 | 24.43126 | -76.83806 | 38948 ft | 487 kts | 114° |
| 2026-04-30 19:40 | 24.40075 | -76.77213 | 38950 ft | 486 kts | 114° |
| 2026-04-30 19:41 | 24.36992 | -76.70562 | 38950 ft | 486 kts | 114° |
| 2026-04-30 19:41 | 24.33874 | -76.63847 | 38949 ft | 486 kts | 114° |
| 2026-04-30 19:42 | 24.30792 | -76.57216 | 38949 ft | 486 kts | 114° |
| 2026-04-30 19:42 | 24.27741 | -76.50662 | 38960 ft | 484 kts | 114° |
| 2026-04-30 19:43 | 24.24647 | -76.44027 | 38961 ft | 484 kts | 114° |
| 2026-04-30 19:44 | 24.19993 | -76.34061 | 38957 ft | 484 kts | 115° |
| 2026-04-30 19:44 | 24.16914 | -76.27480 | 38960 ft | 483 kts | 115° |
| 2026-04-30 19:45 | 24.13842 | -76.20922 | 38950 ft | 483 kts | 115° |
| 2026-04-30 19:45 | 24.10749 | -76.14329 | 38953 ft | 483 kts | 115° |
| 2026-04-30 19:46 | 24.07662 | -76.07757 | 38948 ft | 482 kts | 115° |
| 2026-04-30 19:46 | 24.04585 | -76.01216 | 38949 ft | 482 kts | 115° |
| 2026-04-30 19:47 | 24.01510 | -75.94688 | 38952 ft | 481 kts | 116° |
| 2026-04-30 19:47 | 23.98407 | -75.88111 | 38947 ft | 480 kts | 116° |
| 2026-04-30 19:48 | 23.95341 | -75.81621 | 38949 ft | 481 kts | 116° |
| 2026-04-30 19:48 | 23.92272 | -75.75131 | 38957 ft | 481 kts | 115° |
| 2026-04-30 19:49 | 23.89173 | -75.68590 | 38954 ft | 481 kts | 116° |
| 2026-04-30 19:49 | 23.84547 | -75.58840 | 38949 ft | 480 kts | 116° |
| 2026-04-30 19:50 | 23.81448 | -75.52319 | 38949 ft | 481 kts | 116° |
| 2026-04-30 19:50 | 23.78343 | -75.45793 | 38948 ft | 482 kts | 116° |
| 2026-04-30 19:51 | 23.75206 | -75.39209 | 38947 ft | 481 kts | 116° |
| 2026-04-30 19:51 | 23.72105 | -75.32710 | 38948 ft | 481 kts | 116° |
| 2026-04-30 19:52 | 23.68982 | -75.26176 | 38948 ft | 481 kts | 116° |
| 2026-04-30 19:52 | 23.65878 | -75.19690 | 38948 ft | 481 kts | 117° |
| 2026-04-30 19:53 | 23.62773 | -75.13208 | 38949 ft | 482 kts | 117° |
| 2026-04-30 19:53 | 23.59623 | -75.06644 | 38949 ft | 482 kts | 117° |
| 2026-04-30 19:54 | 23.56506 | -75.00156 | 38948 ft | 482 kts | 117° |
| 2026-04-30 19:54 | 23.53392 | -74.93683 | 38947 ft | 482 kts | 117° |
| 2026-04-30 19:55 | 23.50276 | -74.87216 | 38952 ft | 482 kts | 117° |
| 2026-04-30 19:55 | 23.47151 | -74.80737 | 38948 ft | 482 kts | 117° |
| 2026-04-30 19:56 | 23.44011 | -74.74235 | 38949 ft | 482 kts | 117° |
| 2026-04-30 19:56 | 23.40893 | -74.67788 | 38948 ft | 482 kts | 117° |
| 2026-04-30 19:57 | 23.37734 | -74.61265 | 38948 ft | 483 kts | 117° |
| 2026-04-30 19:57 | 23.34590 | -74.54781 | 38947 ft | 483 kts | 117° |
| 2026-04-30 19:58 | 23.31419 | -74.48253 | 38949 ft | 483 kts | 117° |
| 2026-04-30 19:58 | 23.28251 | -74.41735 | 38954 ft | 484 kts | 117° |
| 2026-04-30 19:59 | 23.25104 | -74.35272 | 38959 ft | 484 kts | 117° |
| 2026-04-30 20:00 | 23.20364 | -74.25551 | 38960 ft | 484 kts | 118° |
| 2026-04-30 20:00 | 23.17191 | -74.19054 | 38965 ft | 484 kts | 118° |
| 2026-04-30 20:01 | 23.12430 | -74.09325 | 38963 ft | 485 kts | 118° |
| 2026-04-30 20:01 | 23.09274 | -74.02885 | 38966 ft | 484 kts | 118° |
| 2026-04-30 20:02 | 23.04452 | -73.93062 | 38971 ft | 485 kts | 118° |
| 2026-04-30 20:03 | 22.99619 | -73.83236 | 38968 ft | 487 kts | 118° |
| 2026-04-30 20:03 | 22.96421 | -73.76745 | 38968 ft | 487 kts | 118° |
| 2026-04-30 20:04 | 22.93191 | -73.70197 | 38974 ft | 486 kts | 118° |
| 2026-04-30 20:05 | 22.88390 | -73.60482 | 38962 ft | 487 kts | 118° |
| 2026-04-30 20:05 | 22.83541 | -73.50686 | 38967 ft | 488 kts | 119° |
| 2026-04-30 20:06 | 22.80297 | -73.44144 | 38961 ft | 490 kts | 118° |
| 2026-04-30 20:06 | 22.77038 | -73.37582 | 38954 ft | 490 kts | 118° |
| 2026-04-30 20:07 | 22.73811 | -73.31088 | 38962 ft | 489 kts | 119° |
| 2026-04-30 20:08 | 22.68944 | -73.21314 | 38976 ft | 491 kts | 120° |
| 2026-04-30 20:08 | 22.65693 | -73.14797 | 38959 ft | 492 kts | 119° |
| 2026-04-30 20:09 | 22.62577 | -73.08556 | 38967 ft | 493 kts | 119° |
| 2026-04-30 20:09 | 22.57690 | -72.98787 | 38959 ft | 494 kts | 120° |
| 2026-04-30 20:10 | 22.52753 | -72.88935 | 38958 ft | 494 kts | 120° |
| 2026-04-30 20:11 | 22.47803 | -72.79077 | 38963 ft | 494 kts | 120° |
| 2026-04-30 20:11 | 22.44528 | -72.72566 | 38963 ft | 495 kts | 120° |
| 2026-04-30 20:12 | 22.39582 | -72.62747 | 38954 ft | 496 kts | 120° |
| 2026-04-30 20:13 | 22.36257 | -72.56159 | 38951 ft | 497 kts | 120° |
| 2026-04-30 20:13 | 22.32961 | -72.49633 | 38964 ft | 497 kts | 120° |
| 2026-04-30 20:14 | 22.29619 | -72.43028 | 38958 ft | 497 kts | 120° |
| 2026-04-30 20:14 | 22.26286 | -72.36447 | 38948 ft | 497 kts | 121° |
| 2026-04-30 20:15 | 22.22954 | -72.29878 | 38953 ft | 497 kts | 121° |
| 2026-04-30 20:15 | 22.19611 | -72.23297 | 38953 ft | 497 kts | 121° |
| 2026-04-30 20:16 | 22.16287 | -72.16759 | 38948 ft | 496 kts | 121° |
| 2026-04-30 20:16 | 22.12949 | -72.10201 | 38950 ft | 496 kts | 121° |
| 2026-04-30 20:17 | 22.09573 | -72.03578 | 38948 ft | 496 kts | 121° |
| 2026-04-30 20:17 | 22.06229 | -71.97027 | 38951 ft | 497 kts | 121° |
| 2026-04-30 20:18 | 22.02868 | -71.90451 | 38953 ft | 497 kts | 121° |
| 2026-04-30 20:18 | 21.99500 | -71.83870 | 38953 ft | 497 kts | 121° |
| 2026-04-30 20:19 | 21.96163 | -71.77354 | 38981 ft | 493 kts | 122° |
| 2026-04-30 20:19 | 21.92834 | -71.70869 | 38944 ft | 498 kts | 121° |
| 2026-04-30 20:20 | 21.89480 | -71.64339 | 38945 ft | 499 kts | 121° |
| 2026-04-30 20:20 | 21.86112 | -71.57789 | 38946 ft | 498 kts | 122° |
| 2026-04-30 20:21 | 21.82771 | -71.51300 | 38946 ft | 497 kts | 122° |
| 2026-04-30 20:21 | 21.79382 | -71.44726 | 38948 ft | 497 kts | 121° |
| 2026-04-30 20:22 | 21.76017 | -71.38206 | 38949 ft | 497 kts | 122° |
| 2026-04-30 20:22 | 21.72656 | -71.31705 | 38943 ft | 497 kts | 122° |
| 2026-04-30 20:23 | 21.69315 | -71.25248 | 38945 ft | 497 kts | 122° |
| 2026-04-30 20:23 | 21.65949 | -71.18752 | 38940 ft | 497 kts | 122° |
| 2026-04-30 20:24 | 21.62572 | -71.12241 | 38940 ft | 498 kts | 122° |
| 2026-04-30 20:24 | 21.59167 | -71.05685 | 38937 ft | 498 kts | 122° |
| 2026-04-30 20:25 | 21.54088 | -70.95954 | 38938 ft | 498 kts | 122° |
| 2026-04-30 20:26 | 21.48983 | -70.86208 | 38935 ft | 498 kts | 122° |
| 2026-04-30 20:26 | 21.43867 | -70.76457 | 38936 ft | 499 kts | 122° |
| 2026-04-30 20:27 | 21.37011 | -70.63420 | 38938 ft | 499 kts | 123° |
| 2026-04-30 20:28 | 21.30180 | -70.50459 | 38936 ft | 499 kts | 123° |
| 2026-04-30 20:30 | 21.21609 | -70.34242 | 38939 ft | 499 kts | 123° |
| 2026-04-30 20:31 | 21.11307 | -70.14811 | 38950 ft | 499 kts | 123° |
| 2026-04-30 20:32 | 21.02691 | -69.98614 | 38946 ft | 498 kts | 123° |
| 2026-04-30 20:33 | 20.97555 | -69.88983 | 38947 ft | 497 kts | 123° |
| 2026-04-30 20:34 | 20.92377 | -69.79287 | 38942 ft | 496 kts | 123° |
| 2026-04-30 20:35 | 20.87205 | -69.69622 | 38947 ft | 497 kts | 123° |
| 2026-04-30 20:35 | 20.82021 | -69.59955 | 38943 ft | 498 kts | 123° |
| 2026-04-30 20:36 | 20.78561 | -69.53510 | 38943 ft | 498 kts | 123° |
| 2026-04-30 20:37 | 20.73372 | -69.43860 | 38946 ft | 499 kts | 123° |
| 2026-04-30 20:37 | 20.69899 | -69.37408 | 38941 ft | 499 kts | 123° |
| 2026-04-30 20:38 | 20.66436 | -69.30984 | 38941 ft | 499 kts | 124° |
| 2026-04-30 20:38 | 20.62962 | -69.24548 | 38941 ft | 500 kts | 124° |
| 2026-04-30 20:39 | 20.57724 | -69.14857 | 38939 ft | 501 kts | 124° |
| 2026-04-30 20:40 | 20.52494 | -69.05196 | 38938 ft | 501 kts | 124° |
| 2026-04-30 20:40 | 20.48979 | -68.98712 | 38935 ft | 502 kts | 124° |
| 2026-04-30 20:41 | 20.43727 | -68.89039 | 38936 ft | 502 kts | 124° |
| 2026-04-30 20:41 | 20.40204 | -68.82560 | 38935 ft | 502 kts | 124° |
| 2026-04-30 20:42 | 20.36703 | -68.76128 | 38935 ft | 502 kts | 124° |
| 2026-04-30 20:43 | 20.31421 | -68.66438 | 38933 ft | 503 kts | 124° |
| 2026-04-30 20:43 | 20.27892 | -68.59972 | 38937 ft | 503 kts | 124° |
| 2026-04-30 20:44 | 20.22338 | -68.50471 | 38932 ft | 501 kts | 128° |
| 2026-04-30 20:45 | 20.14561 | -68.38135 | 38927 ft | 500 kts | 128° |
| 2026-04-30 20:45 | 20.10621 | -68.31888 | 38927 ft | 500 kts | 129° |
| 2026-04-30 20:46 | 20.02822 | -68.19541 | 38931 ft | 502 kts | 129° |
| 2026-04-30 20:47 | 19.96995 | -68.10329 | 38929 ft | 502 kts | 129° |
| 2026-04-30 20:48 | 19.91148 | -68.01097 | 38924 ft | 501 kts | 129° |
| 2026-04-30 20:48 | 19.87213 | -67.94894 | 38928 ft | 501 kts | 129° |
| 2026-04-30 20:49 | 19.83326 | -67.88769 | 38923 ft | 500 kts | 129° |
| 2026-04-30 20:50 | 19.77465 | -67.79548 | 38924 ft | 500 kts | 129° |
| 2026-04-30 20:50 | 19.73569 | -67.73427 | 38924 ft | 501 kts | 129° |
| 2026-04-30 20:51 | 19.69667 | -67.67302 | 38922 ft | 501 kts | 129° |
| 2026-04-30 20:51 | 19.63804 | -67.58109 | 38921 ft | 501 kts | 129° |
| 2026-04-30 20:52 | 19.59875 | -67.51957 | 38920 ft | 501 kts | 129° |
| 2026-04-30 20:53 | 19.53992 | -67.42757 | 38917 ft | 502 kts | 129° |
| 2026-04-30 20:53 | 19.50070 | -67.36631 | 38917 ft | 503 kts | 129° |
| 2026-04-30 20:54 | 19.44163 | -67.27415 | 38915 ft | 503 kts | 130° |
| 2026-04-30 20:55 | 19.38251 | -67.18206 | 38913 ft | 503 kts | 130° |
| 2026-04-30 20:55 | 19.34309 | -67.12072 | 38914 ft | 503 kts | 130° |
| 2026-04-30 20:56 | 19.28406 | -67.02901 | 38910 ft | 504 kts | 130° |
| 2026-04-30 20:57 | 19.22436 | -66.93637 | 38914 ft | 505 kts | 130° |
| 2026-04-30 20:57 | 19.18484 | -66.87514 | 38911 ft | 505 kts | 130° |
| 2026-04-30 20:58 | 19.12500 | -66.78252 | 38922 ft | 505 kts | 130° |
| 2026-04-30 20:58 | 19.08544 | -66.72135 | 38931 ft | 504 kts | 130° |
| 2026-04-30 20:59 | 19.02600 | -66.62959 | 38920 ft | 504 kts | 130° |
| 2026-04-30 21:00 | 18.94678 | -66.50750 | 38919 ft | 504 kts | 130° |
| 2026-04-30 21:01 | 18.88444 | -66.41883 | 38920 ft | 502 kts | 134° |
| 2026-04-30 21:02 | 18.81979 | -66.33119 | 38920 ft | 502 kts | 134° |
| 2026-04-30 21:02 | 18.77689 | -66.27306 | 38922 ft | 501 kts | 134° |
| 2026-04-30 21:03 | 18.73402 | -66.21502 | 38926 ft | 500 kts | 134° |
| 2026-04-30 21:03 | 18.69128 | -66.15720 | 38929 ft | 500 kts | 134° |
| 2026-04-30 21:04 | 18.64847 | -66.09933 | 38930 ft | 501 kts | 134° |
| 2026-04-30 21:04 | 18.58414 | -66.01245 | 38929 ft | 501 kts | 134° |
| 2026-04-30 21:05 | 18.54077 | -65.95393 | 38932 ft | 501 kts | 134° |
| 2026-04-30 21:05 | 18.49735 | -65.89540 | 38929 ft | 501 kts | 134° |
| 2026-04-30 21:06 | 18.45452 | -65.83772 | 38938 ft | 502 kts | 134° |
| 2026-04-30 21:06 | 18.41089 | -65.77902 | 38940 ft | 503 kts | 134° |
| 2026-04-30 21:07 | 18.36695 | -65.71995 | 38945 ft | 503 kts | 134° |
| 2026-04-30 21:07 | 18.32344 | -65.66149 | 38943 ft | 503 kts | 134° |
| 2026-04-30 21:08 | 18.28012 | -65.60335 | 38937 ft | 503 kts | 134° |
| 2026-04-30 21:08 | 18.23688 | -65.54536 | 38930 ft | 504 kts | 134° |
| 2026-04-30 21:09 | 18.19352 | -65.48729 | 38918 ft | 505 kts | 134° |
| 2026-04-30 21:09 | 18.15016 | -65.42924 | 38919 ft | 505 kts | 134° |
| 2026-04-30 21:10 | 18.10651 | -65.37086 | 38919 ft | 505 kts | 134° |
| 2026-04-30 21:10 | 18.06295 | -65.31265 | 38929 ft | 504 kts | 134° |
| 2026-04-30 21:11 | 18.01967 | -65.25487 | 38928 ft | 504 kts | 134° |
| 2026-04-30 21:11 | 17.97630 | -65.19703 | 38928 ft | 505 kts | 134° |
| 2026-04-30 21:12 | 17.93272 | -65.13895 | 38928 ft | 506 kts | 134° |
| 2026-04-30 21:12 | 17.88891 | -65.08062 | 38927 ft | 505 kts | 134° |
| 2026-04-30 21:13 | 17.84531 | -65.02262 | 38926 ft | 504 kts | 135° |
| 2026-04-30 21:13 | 17.80159 | -64.96450 | 38930 ft | 504 kts | 135° |
| 2026-04-30 21:14 | 17.75804 | -64.90666 | 38932 ft | 503 kts | 134° |
| 2026-04-30 21:14 | 17.71452 | -64.84892 | 38938 ft | 503 kts | 134° |
| 2026-04-30 21:15 | 17.67052 | -64.79058 | 38939 ft | 503 kts | 134° |
| 2026-04-30 21:15 | 17.62711 | -64.73308 | 38937 ft | 503 kts | 134° |
| 2026-04-30 21:16 | 17.58360 | -64.67549 | 38929 ft | 503 kts | 134° |
| 2026-04-30 21:16 | 17.53993 | -64.61774 | 38928 ft | 501 kts | 134° |
| 2026-04-30 21:17 | 17.49670 | -64.56062 | 38923 ft | 500 kts | 134° |
| 2026-04-30 21:17 | 17.45328 | -64.50330 | 38922 ft | 500 kts | 134° |
| 2026-04-30 21:18 | 17.40966 | -64.44578 | 38926 ft | 499 kts | 134° |
| 2026-04-30 21:18 | 17.36592 | -64.38815 | 38929 ft | 500 kts | 134° |
| 2026-04-30 21:19 | 17.32208 | -64.33042 | 38926 ft | 499 kts | 134° |
| 2026-04-30 21:19 | 17.27867 | -64.27330 | 38927 ft | 498 kts | 135° |
| 2026-04-30 21:20 | 17.23539 | -64.21641 | 38927 ft | 498 kts | 134° |
| 2026-04-30 21:20 | 17.19207 | -64.15953 | 38928 ft | 497 kts | 134° |
| 2026-04-30 21:21 | 17.14862 | -64.10251 | 38927 ft | 497 kts | 134° |
| 2026-04-30 21:22 | 17.08308 | -64.01661 | 38918 ft | 496 kts | 134° |
| 2026-04-30 21:23 | 16.99680 | -63.90366 | 38906 ft | 496 kts | 134° |
| 2026-04-30 21:23 | 16.93147 | -63.81828 | 38916 ft | 497 kts | 134° |
| 2026-04-30 21:24 | 16.88805 | -63.76159 | 38906 ft | 497 kts | 134° |
| 2026-04-30 21:24 | 16.84449 | -63.70475 | 38900 ft | 497 kts | 134° |
| 2026-04-30 21:25 | 16.77956 | -63.62013 | 38904 ft | 496 kts | 133° |
| 2026-04-30 21:26 | 16.71465 | -63.53565 | 38452 ft | 502 kts | 133° |
| 2026-04-30 21:26 | 16.69251 | -63.50686 | 37865 ft | 501 kts | 133° |
| 2026-04-30 21:27 | 16.64890 | -63.45016 | 36641 ft | 501 kts | 133° |
| 2026-04-30 21:27 | 16.62656 | -63.42115 | 35966 ft | 502 kts | 133° |
| 2026-04-30 21:27 | 16.60459 | -63.39261 | 35302 ft | 502 kts | 133° |
| 2026-04-30 21:28 | 16.56072 | -63.33569 | 33968 ft | 505 kts | 133° |
| 2026-04-30 21:28 | 16.53855 | -63.30694 | 33293 ft | 507 kts | 133° |
| 2026-04-30 21:28 | 16.49413 | -63.24935 | 31948 ft | 504 kts | 133° |
| 2026-04-30 21:29 | 16.47233 | -63.22109 | 31286 ft | 498 kts | 133° |
| 2026-04-30 21:29 | 16.40784 | -63.13757 | 29317 ft | 483 kts | 132° |
| 2026-04-30 21:30 | 16.36591 | -63.08334 | 28037 ft | 474 kts | 132° |
| 2026-04-30 21:31 | 16.31169 | -62.99968 | 26133 ft | 465 kts | 111° |
| 2026-04-30 21:31 | 16.30353 | -62.93343 | 24791 ft | 459 kts | 89° |
| 2026-04-30 21:32 | 16.30615 | -62.86818 | 23620 ft | 445 kts | 90° |
| 2026-04-30 21:32 | 16.30738 | -62.83635 | 23042 ft | 438 kts | 90° |
| 2026-04-30 21:32 | 16.30859 | -62.80457 | 22459 ft | 431 kts | 90° |
| 2026-04-30 21:32 | 16.30976 | -62.77375 | 21898 ft | 424 kts | 90° |
| 2026-04-30 21:33 | 16.31090 | -62.74326 | 21338 ft | 417 kts | 90° |
| 2026-04-30 21:33 | 16.31312 | -62.68371 | 20253 ft | 403 kts | 90° |
| 2026-04-30 21:33 | 16.31418 | -62.65475 | 19723 ft | 398 kts | 90° |
| 2026-04-30 21:34 | 16.31522 | -62.62602 | 19198 ft | 397 kts | 90° |
| 2026-04-30 21:34 | 16.31729 | -62.56873 | 18145 ft | 391 kts | 89° |
| 2026-04-30 21:34 | 16.31830 | -62.54069 | 17632 ft | 387 kts | 89° |
| 2026-04-30 21:35 | 16.31929 | -62.51302 | 17124 ft | 383 kts | 89° |
| 2026-04-30 21:35 | 16.32026 | -62.48560 | 16618 ft | 378 kts | 89° |
| 2026-04-30 21:35 | 16.32124 | -62.45793 | 16114 ft | 374 kts | 89° |
| 2026-04-30 21:35 | 16.32218 | -62.43109 | 15620 ft | 371 kts | 88° |
| 2026-04-30 21:36 | 16.32311 | -62.40456 | 15138 ft | 366 kts | 88° |
| 2026-04-30 21:36 | 16.32404 | -62.37801 | 14652 ft | 362 kts | 88° |
| 2026-04-30 21:37 | 16.32670 | -62.30093 | 13242 ft | 349 kts | 88° |
| 2026-04-30 21:37 | 16.32756 | -62.27594 | 12783 ft | 344 kts | 88° |
| 2026-04-30 21:37 | 16.32841 | -62.25111 | 12383 ft | 335 kts | 88° |
| 2026-04-30 21:37 | 16.32923 | -62.22700 | 11950 ft | 328 kts | 88° |
| 2026-04-30 21:38 | 16.33002 | -62.20357 | 11517 ft | 321 kts | 88° |
| 2026-04-30 21:38 | 16.33079 | -62.18058 | 11095 ft | 315 kts | 88° |
| 2026-04-30 21:38 | 16.33155 | -62.15802 | 10683 ft | 310 kts | 88° |
| 2026-04-30 21:38 | 16.33229 | -62.13585 | 10276 ft | 304 kts | 87° |
| 2026-04-30 21:39 | 16.33303 | -62.11380 | 9875 ft | 299 kts | 87° |
| 2026-04-30 21:39 | 16.33374 | -62.09237 | 9484 ft | 295 kts | 87° |
| 2026-04-30 21:39 | 16.33445 | -62.07117 | 9099 ft | 290 kts | 87° |
| 2026-04-30 21:39 | 16.33515 | -62.05012 | 8709 ft | 285 kts | 87° |
| 2026-04-30 21:40 | 16.33583 | -62.02942 | 8335 ft | 281 kts | 87° |
| 2026-04-30 21:40 | 16.33649 | -62.00934 | 7967 ft | 276 kts | 87° |
| 2026-04-30 21:40 | 16.33714 | -61.98957 | 7608 ft | 272 kts | 88° |
| 2026-04-30 21:40 | 16.33778 | -61.96996 | 7251 ft | 268 kts | 88° |
| 2026-04-30 21:41 | 16.33841 | -61.95084 | 6903 ft | 264 kts | 88° |
| 2026-04-30 21:41 | 16.33886 | -61.93167 | 6555 ft | 261 kts | 92° |
| 2026-04-30 21:41 | 16.33629 | -61.91307 | 6209 ft | 260 kts | 100° |
| 2026-04-30 21:41 | 16.33280 | -61.89463 | 5870 ft | 259 kts | 100° |
| 2026-04-30 21:42 | 16.32937 | -61.87615 | 5527 ft | 258 kts | 100° |
| 2026-04-30 21:42 | 16.32595 | -61.85782 | 5188 ft | 256 kts | 100° |
| 2026-04-30 21:42 | 16.32235 | -61.83980 | 4849 ft | 255 kts | 100° |
| 2026-04-30 21:42 | 16.31895 | -61.82174 | 4509 ft | 253 kts | 100° |
| 2026-04-30 21:43 | 16.31555 | -61.80358 | 4166 ft | 252 kts | 100° |
| 2026-04-30 21:43 | 16.31336 | -61.79174 | 3941 ft | 251 kts | 100° |
| 2026-04-30 21:43 | 16.30901 | -61.76824 | 3648 ft | 246 kts | 100° |
| 2026-04-30 21:43 | 16.30576 | -61.75057 | 3633 ft | 248 kts | 100° |
| 2026-04-30 21:44 | 16.30251 | -61.73296 | 3634 ft | 247 kts | 99° |
| 2026-04-30 21:44 | 16.29931 | -61.71561 | 3376 ft | 240 kts | 100° |
| 2026-04-30 21:44 | 16.29618 | -61.69872 | 3075 ft | 234 kts | 100° |
| 2026-04-30 21:44 | 16.29314 | -61.68226 | 2760 ft | 230 kts | 100° |
| 2026-04-30 21:45 | 16.29016 | -61.66614 | 2450 ft | 217 kts | 100° |
| 2026-04-30 21:45 | 16.28749 | -61.65173 | 2144 ft | 187 kts | 99° |
| 2026-04-30 21:45 | 16.28519 | -61.63937 | 1940 ft | 164 kts | 99° |
| 2026-04-30 21:45 | 16.28310 | -61.62806 | 1738 ft | 153 kts | 99° |
| 2026-04-30 21:46 | 16.28108 | -61.61706 | 1499 ft | 154 kts | 99° |
| 2026-04-30 21:46 | 16.27911 | -61.60635 | 1299 ft | 142 kts | 101° |
| 2026-04-30 21:46 | 16.27729 | -61.59655 | 1111 ft | 132 kts | 101° |
| 2026-04-30 21:46 | 16.27562 | -61.58754 | 925 ft | 122 kts | 101° |
| 2026-04-30 21:47 | 16.27402 | -61.57892 | 748 ft | 119 kts | 100° |
| 2026-04-30 21:47 | 16.27248 | -61.57051 | 583 ft | 117 kts | 98° |
| 2026-04-30 21:47 | 16.27096 | -61.56224 | 410 ft | 117 kts | 101° |
| 2026-04-30 21:47 | 16.26947 | -61.55387 | 238 ft | 117 kts | 101° |
| 2026-04-30 21:48 | 16.26788 | -61.54554 | 97 ft | 117 kts | 103° |
| 2026-04-30 21:48 | 16.26639 | -61.53762 | 41 ft | 98 kts | 99° |
| 2026-04-30 21:48 | 16.26538 | -61.53235 | 34 ft | 62 kts | 102° |
| 2026-04-30 21:48 | 16.26462 | -61.52812 | 33 ft | 54 kts | 102° |
| 2026-04-30 21:49 | 16.26391 | -61.52578 | 34 ft | 17 kts | 156° |
| 2026-04-30 21:49 | 16.26263 | -61.52605 | 35 ft | 14 kts | 196° |
| 2026-04-30 21:49 | 16.26246 | -61.52616 | 35 ft | 0 kts | 279° |